Hanover, Connecticut
Current Conditions -  °F | °C
As of 6:04 PM on Wednesday 26 Nov 2014 (Local Time) from KIJD Reporting Station
Light Rain Light Rain  
Wind Chill: 26°   Ceiling: 1500
Heat Index: 36°   Visibility: 7mi
Dew Point: 32°   Wind: 17mph
Humidity: 86%   Direction: 30°NNE
Pressure: 29.75"   Gusts: 29mph
Location:  41.64°N, 72.07°W
Report Text: KIJD 262304Z AUTO 03015G25KT 7SM -RA OVC015 02/00 A2975 RMK AO2 PRESFR P0001 T00220000
Loading
Personal Weather Stations






























Interactive Weather Map New forecast layout! Learn more

10-Day Weather Forecast

Advertisements
Track Severe Weather on mobile